KTXK/TXK METAR and TAF weather

Enter ICAO airport designator
Station Type Date Time Source
KTXK METAR 2019/12/08 16:53 UTC NOAA

KTXK 081653Z 17009KT 9SM OVC005 09/07 A3010 RMK AO2 SLP191 T00890072


Station Type Date Time Source
KTXK Decoded METAR 2019/12/08 16:53 UTC NOAA

TEXARKANA RGNL WEBB FIELD, AR, United States (KTXK) 33-27N 093-59W 111M
Dec 08, 2019 - 11:53 AM EST / 2019.12.08 1653 UTC
Wind: from the S (170 degrees) at 10 MPH (9 KT):0
Visibility: 9 mile(s):0
Sky conditions: overcast
Temperature: 48.0 F (8.9 C)
Dew Point: 45.0 F (7.2 C)
Relative Humidity: 89%
Pressure (altimeter): 30.1 in. Hg (1019 hPa)
ob: KTXK 081653Z 17009KT 9SM OVC005 09/07 A3010 RMK AO2 SLP191 T00890072
cycle: 17

Station Type Date Time Source
KTXK TAF 2019/12/08 14:09 UTC NOAA

TAF
AMD KTXK 081405Z 0814/0912 15010KT 4SM BR OVC003
TEMPO 0814/0817 6SM BR BKN006 OVC012
FM081700 18009KT P6SM BKN035
FM090600 19015KT P6SM OVC015

Example: see airport list